Terminal Aerodrome Forecast
Issued by NWS

Home | Current Version | Previous Version | Graphics & Text | Print | Product List | Glossary On
Versions: 1 2 3 4 5 6 7 8 9 10 11 12 13 14 15
946
FTUS42 KMHX 221729
TAFPGV
TAF
KPGV 221729Z 2218/2318 12006KT P6SM FEW050 BKN250
     FM231400 10013G23KT P6SM SCT030 OVC050
      AMD LTD TO CLD VIS AND WIND=

USA.gov is the U.S. government's official web portal to all federal, state and local government web resources and services.